sensor_id;sensor_type;location;lat;lon;timestamp;temperature;humidity
78438;SHT31;67736;51.978;5.656;2023-08-08T00:00:49;17.6;67.9
78438;SHT31;67736;51.978;5.656;2023-08-08T00:03:19;17.5;68.1
78438;SHT31;67736;51.978;5.656;2023-08-08T00:05:49;17.5;68.3
78438;SHT31;67736;51.978;5.656;2023-08-08T00:08:18;17.5;68.6
78438;SHT31;67736;51.978;5.656;2023-08-08T00:10:48;17.5;68.8
78438;SHT31;67736;51.978;5.656;2023-08-08T00:13:17;17.5;69.0
78438;SHT31;67736;51.978;5.656;2023-08-08T00:15:50;17.4;69.1
78438;SHT31;67736;51.978;5.656;2023-08-08T00:18:20;17.4;69.2
78438;SHT31;67736;51.978;5.656;2023-08-08T00:20:49;17.4;69.3
78438;SHT31;67736;51.978;5.656;2023-08-08T00:23:19;17.4;69.4
78438;SHT31;67736;51.978;5.656;2023-08-08T00:25:48;17.4;69.5
78438;SHT31;67736;51.978;5.656;2023-08-08T00:28:20;17.4;69.7
78438;SHT31;67736;51.978;5.656;2023-08-08T00:30:49;17.4;69.8
78438;SHT31;67736;51.978;5.656;2023-08-08T00:33:19;17.4;69.8
78438;SHT31;67736;51.978;5.656;2023-08-08T00:35:48;17.4;70.0
78438;SHT31;67736;51.978;5.656;2023-08-08T00:38:18;17.4;69.9
78438;SHT31;67736;51.978;5.656;2023-08-08T00:40:49;17.4;69.9
78438;SHT31;67736;51.978;5.656;2023-08-08T00:43:19;17.4;70.0
78438;SHT31;67736;51.978;5.656;2023-08-08T00:45:48;17.4;70.1
78438;SHT31;67736;51.978;5.656;2023-08-08T00:48:18;17.4;70.2
78438;SHT31;67736;51.978;5.656;2023-08-08T00:50:49;17.4;70.1
78438;SHT31;67736;51.978;5.656;2023-08-08T00:53:20;17.4;70.1
78438;SHT31;67736;51.978;5.656;2023-08-08T00:55:55;17.4;70.2
78438;SHT31;67736;51.978;5.656;2023-08-08T00:58:25;17.4;70.4
78438;SHT31;67736;51.978;5.656;2023-08-08T01:00:56;17.4;70.9
78438;SHT31;67736;51.978;5.656;2023-08-08T01:03:27;17.4;70.9
78438;SHT31;67736;51.978;5.656;2023-08-08T01:06:03;17.4;70.8
78438;SHT31;67736;51.978;5.656;2023-08-08T01:08:41;17.5;71.1
78438;SHT31;67736;51.978;5.656;2023-08-08T01:11:12;17.5;71.2
78438;SHT31;67736;51.978;5.656;2023-08-08T01:13:44;17.5;71.2
78438;SHT31;67736;51.978;5.656;2023-08-08T01:16:15;17.5;71.0
78438;SHT31;67736;51.978;5.656;2023-08-08T01:18:47;17.5;71.3
78438;SHT31;67736;51.978;5.656;2023-08-08T01:21:17;17.5;70.7
78438;SHT31;67736;51.978;5.656;2023-08-08T01:23:56;17.5;71.0
78438;SHT31;67736;51.978;5.656;2023-08-08T01:26:26;17.6;71.2
78438;SHT31;67736;51.978;5.656;2023-08-08T01:28:57;17.6;71.1
78438;SHT31;67736;51.978;5.656;2023-08-08T01:31:26;17.6;70.6
78438;SHT31;67736;51.978;5.656;2023-08-08T01:33:58;17.6;70.7
78438;SHT31;67736;51.978;5.656;2023-08-08T01:36:32;17.6;70.9
78438;SHT31;67736;51.978;5.656;2023-08-08T01:39:13;17.6;70.9
78438;SHT31;67736;51.978;5.656;2023-08-08T01:41:47;17.6;71.1
78438;SHT31;67736;51.978;5.656;2023-08-08T01:44:17;17.6;70.9
78438;SHT31;67736;51.978;5.656;2023-08-08T01:46:48;17.6;70.6
78438;SHT31;67736;51.978;5.656;2023-08-08T01:49:18;17.6;70.6
78438;SHT31;67736;51.978;5.656;2023-08-08T01:51:47;17.6;70.6
78438;SHT31;67736;51.978;5.656;2023-08-08T01:54:18;17.6;70.6
78438;SHT31;67736;51.978;5.656;2023-08-08T01:56:48;17.6;70.6
78438;SHT31;67736;51.978;5.656;2023-08-08T01:59:17;17.6;70.8
78438;SHT31;67736;51.978;5.656;2023-08-08T02:01:47;17.6;70.8
78438;SHT31;67736;51.978;5.656;2023-08-08T02:04:16;17.6;70.8
78438;SHT31;67736;51.978;5.656;2023-08-08T02:06:46;17.6;70.8
78438;SHT31;67736;51.978;5.656;2023-08-08T02:09:15;17.6;70.6
78438;SHT31;67736;51.978;5.656;2023-08-08T02:11:45;17.6;70.6
78438;SHT31;67736;51.978;5.656;2023-08-08T02:14:16;17.6;70.5
78438;SHT31;67736;51.978;5.656;2023-08-08T02:16:46;17.6;70.4
78438;SHT31;67736;51.978;5.656;2023-08-08T02:19:15;17.6;70.3
78438;SHT31;67736;51.978;5.656;2023-08-08T02:21:45;17.6;70.4
78438;SHT31;67736;51.978;5.656;2023-08-08T02:24:15;17.6;70.2
78438;SHT31;67736;51.978;5.656;2023-08-08T02:26:44;17.6;70.0
78438;SHT31;67736;51.978;5.656;2023-08-08T02:29:14;17.5;70.0
78438;SHT31;67736;51.978;5.656;2023-08-08T02:31:43;17.5;69.7
78438;SHT31;67736;51.978;5.656;2023-08-08T02:34:13;17.5;69.7
78438;SHT31;67736;51.978;5.656;2023-08-08T02:36:42;17.5;69.7
78438;SHT31;67736;51.978;5.656;2023-08-08T02:39:12;17.5;69.7
78438;SHT31;67736;51.978;5.656;2023-08-08T02:41:41;17.5;69.8
78438;SHT31;67736;51.978;5.656;2023-08-08T02:44:12;17.4;69.6
78438;SHT31;67736;51.978;5.656;2023-08-08T02:46:41;17.4;69.8
78438;SHT31;67736;51.978;5.656;2023-08-08T02:49:11;17.4;69.8
78438;SHT31;67736;51.978;5.656;2023-08-08T02:51:41;17.4;70.0
78438;SHT31;67736;51.978;5.656;2023-08-08T02:54:12;17.4;70.1
78438;SHT31;67736;51.978;5.656;2023-08-08T02:56:42;17.3;70.4
78438;SHT31;67736;51.978;5.656;2023-08-08T02:59:11;17.3;70.6
78438;SHT31;67736;51.978;5.656;2023-08-08T03:01:44;17.3;71.0
78438;SHT31;67736;51.978;5.656;2023-08-08T03:04:15;17.3;71.4
78438;SHT31;67736;51.978;5.656;2023-08-08T03:06:44;17.3;71.8
78438;SHT31;67736;51.978;5.656;2023-08-08T03:09:14;17.2;72.1
78438;SHT31;67736;51.978;5.656;2023-08-08T03:11:44;17.2;72.3
78438;SHT31;67736;51.978;5.656;2023-08-08T03:14:13;17.2;72.7
78438;SHT31;67736;51.978;5.656;2023-08-08T03:16:43;17.2;73.0
78438;SHT31;67736;51.978;5.656;2023-08-08T03:19:12;17.2;73.3
78438;SHT31;67736;51.978;5.656;2023-08-08T03:21:42;17.1;73.5
78438;SHT31;67736;51.978;5.656;2023-08-08T03:24:12;17.1;73.6
78438;SHT31;67736;51.978;5.656;2023-08-08T03:26:41;17.1;73.7
78438;SHT31;67736;51.978;5.656;2023-08-08T03:29:11;17.1;73.8
78438;SHT31;67736;51.978;5.656;2023-08-08T03:31:42;17.1;73.7
78438;SHT31;67736;51.978;5.656;2023-08-08T03:34:12;17.1;73.8
78438;SHT31;67736;51.978;5.656;2023-08-08T03:36:42;17.1;73.7
78438;SHT31;67736;51.978;5.656;2023-08-08T03:39:11;17.0;73.7
78438;SHT31;67736;51.978;5.656;2023-08-08T03:41:41;17.0;73.7
78438;SHT31;67736;51.978;5.656;2023-08-08T03:44:10;17.0;73.6
78438;SHT31;67736;51.978;5.656;2023-08-08T03:46:40;17.0;73.5
78438;SHT31;67736;51.978;5.656;2023-08-08T03:49:09;17.0;73.4
78438;SHT31;67736;51.978;5.656;2023-08-08T03:51:39;17.0;73.4
78438;SHT31;67736;51.978;5.656;2023-08-08T03:54:08;17.0;73.3
78438;SHT31;67736;51.978;5.656;2023-08-08T03:56:40;17.0;73.3
78438;SHT31;67736;51.978;5.656;2023-08-08T03:59:10;17.0;73.3
78438;SHT31;67736;51.978;5.656;2023-08-08T04:01:39;17.0;73.4
78438;SHT31;67736;51.978;5.656;2023-08-08T04:04:09;17.0;73.5
78438;SHT31;67736;51.978;5.656;2023-08-08T04:06:38;17.0;73.5
78438;SHT31;67736;51.978;5.656;2023-08-08T04:09:08;17.0;73.6
78438;SHT31;67736;51.978;5.656;2023-08-08T04:11:38;17.0;73.7
78438;SHT31;67736;51.978;5.656;2023-08-08T04:14:08;16.9;73.7
78438;SHT31;67736;51.978;5.656;2023-08-08T04:16:38;16.9;73.8
78438;SHT31;67736;51.978;5.656;2023-08-08T04:19:08;16.9;73.7
78438;SHT31;67736;51.978;5.656;2023-08-08T04:21:38;16.9;73.8
78438;SHT31;67736;51.978;5.656;2023-08-08T04:24:09;16.9;73.9
78438;SHT31;67736;51.978;5.656;2023-08-08T04:26:39;16.9;73.9
78438;SHT31;67736;51.978;5.656;2023-08-08T04:29:09;17.0;73.9
78438;SHT31;67736;51.978;5.656;2023-08-08T04:31:38;17.0;74.0
78438;SHT31;67736;51.978;5.656;2023-08-08T04:34:10;17.0;74.2
78438;SHT31;67736;51.978;5.656;2023-08-08T04:36:39;17.0;74.3
78438;SHT31;67736;51.978;5.656;2023-08-08T04:39:09;17.0;74.4
78438;SHT31;67736;51.978;5.656;2023-08-08T04:41:38;17.0;74.6
78438;SHT31;67736;51.978;5.656;2023-08-08T04:44:08;17.0;74.7
78438;SHT31;67736;51.978;5.656;2023-08-08T04:46:37;17.0;74.7
78438;SHT31;67736;51.978;5.656;2023-08-08T04:49:07;17.0;74.8
78438;SHT31;67736;51.978;5.656;2023-08-08T04:51:37;17.0;74.8
78438;SHT31;67736;51.978;5.656;2023-08-08T04:54:07;17.0;74.8
78438;SHT31;67736;51.978;5.656;2023-08-08T04:56:36;17.0;74.7
78438;SHT31;67736;51.978;5.656;2023-08-08T04:59:07;17.0;74.6
78438;SHT31;67736;51.978;5.656;2023-08-08T05:01:38;17.0;74.5
78438;SHT31;67736;51.978;5.656;2023-08-08T05:04:08;17.0;74.3
78438;SHT31;67736;51.978;5.656;2023-08-08T05:06:38;17.0;74.3
78438;SHT31;67736;51.978;5.656;2023-08-08T05:09:07;17.0;74.2
78438;SHT31;67736;51.978;5.656;2023-08-08T05:11:38;17.0;74.3
78438;SHT31;67736;51.978;5.656;2023-08-08T05:14:07;17.0;74.4
78438;SHT31;67736;51.978;5.656;2023-08-08T05:16:37;17.0;74.6
78438;SHT31;67736;51.978;5.656;2023-08-08T05:19:09;17.0;74.6
78438;SHT31;67736;51.978;5.656;2023-08-08T05:21:39;17.1;74.6
78438;SHT31;67736;51.978;5.656;2023-08-08T05:24:10;17.1;74.7
78438;SHT31;67736;51.978;5.656;2023-08-08T05:26:40;17.1;74.7
78438;SHT31;67736;51.978;5.656;2023-08-08T05:29:09;17.1;74.9
78438;SHT31;67736;51.978;5.656;2023-08-08T05:31:41;17.1;74.7
78438;SHT31;67736;51.978;5.656;2023-08-08T05:34:10;17.1;74.6
78438;SHT31;67736;51.978;5.656;2023-08-08T05:36:40;17.1;74.6
78438;SHT31;67736;51.978;5.656;2023-08-08T05:39:10;17.2;74.2
78438;SHT31;67736;51.978;5.656;2023-08-08T05:41:39;17.2;74.1
78438;SHT31;67736;51.978;5.656;2023-08-08T05:44:09;17.2;74.0
78438;SHT31;67736;51.978;5.656;2023-08-08T05:46:38;17.3;74.0
78438;SHT31;67736;51.978;5.656;2023-08-08T05:49:08;17.3;73.8
78438;SHT31;67736;51.978;5.656;2023-08-08T05:51:40;17.3;73.4
78438;SHT31;67736;51.978;5.656;2023-08-08T05:54:09;17.3;73.3
78438;SHT31;67736;51.978;5.656;2023-08-08T05:56:39;17.4;72.8
78438;SHT31;67736;51.978;5.656;2023-08-08T05:59:09;17.4;72.6
78438;SHT31;67736;51.978;5.656;2023-08-08T06:01:38;17.4;72.7
78438;SHT31;67736;51.978;5.656;2023-08-08T06:04:08;17.5;71.9
78438;SHT31;67736;51.978;5.656;2023-08-08T06:06:38;17.5;72.0
78438;SHT31;67736;51.978;5.656;2023-08-08T06:09:08;17.5;71.6
78438;SHT31;67736;51.978;5.656;2023-08-08T06:11:39;17.5;71.6
78438;SHT31;67736;51.978;5.656;2023-08-08T06:14:09;17.6;70.9
78438;SHT31;67736;51.978;5.656;2023-08-08T06:16:39;17.6;70.6
78438;SHT31;67736;51.978;5.656;2023-08-08T06:19:09;17.6;70.2
78438;SHT31;67736;51.978;5.656;2023-08-08T06:21:39;17.7;69.2
78438;SHT31;67736;51.978;5.656;2023-08-08T06:24:11;17.7;68.9
78438;SHT31;67736;51.978;5.656;2023-08-08T06:26:40;17.7;68.2
78438;SHT31;67736;51.978;5.656;2023-08-08T06:29:09;17.8;67.9
78438;SHT31;67736;51.978;5.656;2023-08-08T06:31:41;17.8;68.2
78438;SHT31;67736;51.978;5.656;2023-08-08T06:34:13;17.8;67.7
78438;SHT31;67736;51.978;5.656;2023-08-08T06:36:42;17.8;66.9
78438;SHT31;67736;51.978;5.656;2023-08-08T06:39:14;17.9;66.5
78438;SHT31;67736;51.978;5.656;2023-08-08T06:41:47;17.9;66.0
78438;SHT31;67736;51.978;5.656;2023-08-08T06:44:16;17.9;65.5
78438;SHT31;67736;51.978;5.656;2023-08-08T06:46:46;17.9;65.7
78438;SHT31;67736;51.978;5.656;2023-08-08T06:49:15;18.0;64.9
78438;SHT31;67736;51.978;5.656;2023-08-08T06:51:45;18.0;64.8
78438;SHT31;67736;51.978;5.656;2023-08-08T06:54:14;18.0;64.2
78438;SHT31;67736;51.978;5.656;2023-08-08T06:56:45;18.0;64.0
78438;SHT31;67736;51.978;5.656;2023-08-08T06:59:15;18.0;64.2
78438;SHT31;67736;51.978;5.656;2023-08-08T07:01:45;18.1;64.0
78438;SHT31;67736;51.978;5.656;2023-08-08T07:04:16;18.1;63.6
78438;SHT31;67736;51.978;5.656;2023-08-08T07:06:46;18.1;63.7
78438;SHT31;67736;51.978;5.656;2023-08-08T07:09:15;18.1;63.7
78438;SHT31;67736;51.978;5.656;2023-08-08T07:11:45;18.2;64.5
78438;SHT31;67736;51.978;5.656;2023-08-08T07:14:15;18.2;63.4
78438;SHT31;67736;51.978;5.656;2023-08-08T07:16:46;18.2;62.8
78438;SHT31;67736;51.978;5.656;2023-08-08T07:19:17;18.3;61.0
78438;SHT31;67736;51.978;5.656;2023-08-08T07:21:46;18.3;61.3
78438;SHT31;67736;51.978;5.656;2023-08-08T07:24:16;18.3;61.8
78438;SHT31;67736;51.978;5.656;2023-08-08T07:26:47;18.3;61.6
78438;SHT31;67736;51.978;5.656;2023-08-08T07:29:17;18.4;61.7
78438;SHT31;67736;51.978;5.656;2023-08-08T07:31:46;18.4;60.3
78438;SHT31;67736;51.978;5.656;2023-08-08T07:34:16;18.4;59.2
78438;SHT31;67736;51.978;5.656;2023-08-08T07:36:46;18.5;59.3
78438;SHT31;67736;51.978;5.656;2023-08-08T07:39:16;18.5;58.7
78438;SHT31;67736;51.978;5.656;2023-08-08T07:41:46;18.5;58.9
78438;SHT31;67736;51.978;5.656;2023-08-08T07:44:15;18.6;59.2
78438;SHT31;67736;51.978;5.656;2023-08-08T07:46:45;18.7;58.6
78438;SHT31;67736;51.978;5.656;2023-08-08T07:49:15;18.8;58.1
78438;SHT31;67736;51.978;5.656;2023-08-08T07:51:44;18.9;58.1
78438;SHT31;67736;51.978;5.656;2023-08-08T07:54:14;19.0;57.6
78438;SHT31;67736;51.978;5.656;2023-08-08T07:56:43;19.1;56.0
78438;SHT31;67736;51.978;5.656;2023-08-08T07:59:13;19.3;56.1
78438;SHT31;67736;51.978;5.656;2023-08-08T08:01:43;19.4;55.7
78438;SHT31;67736;51.978;5.656;2023-08-08T08:04:13;19.5;55.2
78438;SHT31;67736;51.978;5.656;2023-08-08T08:06:42;19.7;54.7
78438;SHT31;67736;51.978;5.656;2023-08-08T08:09:12;19.9;54.4
78438;SHT31;67736;51.978;5.656;2023-08-08T08:11:42;20.0;54.5
78438;SHT31;67736;51.978;5.656;2023-08-08T08:14:11;20.2;53.5
78438;SHT31;67736;51.978;5.656;2023-08-08T08:16:41;20.4;52.4
78438;SHT31;67736;51.978;5.656;2023-08-08T08:19:10;20.5;52.1
78438;SHT31;67736;51.978;5.656;2023-08-08T08:21:40;20.7;52.1
78438;SHT31;67736;51.978;5.656;2023-08-08T08:24:10;20.8;51.9
78438;SHT31;67736;51.978;5.656;2023-08-08T08:26:40;21.0;50.3
78438;SHT31;67736;51.978;5.656;2023-08-08T08:29:09;21.1;49.3
78438;SHT31;67736;51.978;5.656;2023-08-08T08:31:39;21.2;49.7
78438;SHT31;67736;51.978;5.656;2023-08-08T08:34:08;21.3;50.1
78438;SHT31;67736;51.978;5.656;2023-08-08T08:36:38;21.4;50.0
78438;SHT31;67736;51.978;5.656;2023-08-08T08:39:07;21.6;49.8
78438;SHT31;67736;51.978;5.656;2023-08-08T08:41:39;21.7;48.7
78438;SHT31;67736;51.978;5.656;2023-08-08T08:44:09;21.8;47.7
78438;SHT31;67736;51.978;5.656;2023-08-08T08:46:41;21.9;46.4
78438;SHT31;67736;51.978;5.656;2023-08-08T08:49:12;22.0;46.9
78438;SHT31;67736;51.978;5.656;2023-08-08T08:51:42;22.0;47.3
78438;SHT31;67736;51.978;5.656;2023-08-08T08:54:13;22.1;46.4
78438;SHT31;67736;51.978;5.656;2023-08-08T08:56:43;22.1;46.0
78438;SHT31;67736;51.978;5.656;2023-08-08T08:59:13;22.2;45.7
78438;SHT31;67736;51.978;5.656;2023-08-08T09:01:43;22.2;46.6
78438;SHT31;67736;51.978;5.656;2023-08-08T09:04:16;22.2;46.7
78438;SHT31;67736;51.978;5.656;2023-08-08T09:06:49;22.3;44.9
78438;SHT31;67736;51.978;5.656;2023-08-08T09:09:18;22.4;44.2
78438;SHT31;67736;51.978;5.656;2023-08-08T09:11:52;22.4;43.7
78438;SHT31;67736;51.978;5.656;2023-08-08T09:14:25;22.4;44.0
78438;SHT31;67736;51.978;5.656;2023-08-08T09:16:54;22.4;44.1
78438;SHT31;67736;51.978;5.656;2023-08-08T09:19:25;22.4;44.3
78438;SHT31;67736;51.978;5.656;2023-08-08T09:21:54;22.5;43.6
78438;SHT31;67736;51.978;5.656;2023-08-08T09:24:24;22.5;43.3
78438;SHT31;67736;51.978;5.656;2023-08-08T09:26:54;22.6;43.4
78438;SHT31;67736;51.978;5.656;2023-08-08T09:29:23;22.6;42.5
78438;SHT31;67736;51.978;5.656;2023-08-08T09:31:55;22.6;42.4
78438;SHT31;67736;51.978;5.656;2023-08-08T09:34:26;22.6;43.1
78438;SHT31;67736;51.978;5.656;2023-08-08T09:36:55;22.7;43.0
78438;SHT31;67736;51.978;5.656;2023-08-08T09:39:25;22.7;42.4
78438;SHT31;67736;51.978;5.656;2023-08-08T09:41:55;22.7;42.5
78438;SHT31;67736;51.978;5.656;2023-08-08T09:44:26;22.7;42.3
78438;SHT31;67736;51.978;5.656;2023-08-08T09:46:57;22.8;42.5
78438;SHT31;67736;51.978;5.656;2023-08-08T09:49:27;22.9;42.5
78438;SHT31;67736;51.978;5.656;2023-08-08T09:51:59;22.9;41.9
78438;SHT31;67736;51.978;5.656;2023-08-08T09:54:30;23.0;43.2
78438;SHT31;67736;51.978;5.656;2023-08-08T09:57:01;23.1;42.5
78438;SHT31;67736;51.978;5.656;2023-08-08T09:59:31;23.1;42.2
78438;SHT31;67736;51.978;5.656;2023-08-08T10:02:04;23.2;41.4
78438;SHT31;67736;51.978;5.656;2023-08-08T10:04:34;23.2;40.9
78438;SHT31;67736;51.978;5.656;2023-08-08T10:07:04;23.2;41.2
78438;SHT31;67736;51.978;5.656;2023-08-08T10:09:34;23.2;41.1
78438;SHT31;67736;51.978;5.656;2023-08-08T10:12:06;23.3;41.4
78438;SHT31;67736;51.978;5.656;2023-08-08T10:14:37;23.3;41.5
78438;SHT31;67736;51.978;5.656;2023-08-08T10:17:07;23.3;41.8
78438;SHT31;67736;51.978;5.656;2023-08-08T10:19:37;23.3;41.9
78438;SHT31;67736;51.978;5.656;2023-08-08T10:22:08;23.3;40.6
78438;SHT31;67736;51.978;5.656;2023-08-08T10:24:39;23.3;41.2
78438;SHT31;67736;51.978;5.656;2023-08-08T10:27:10;23.3;41.5
78438;SHT31;67736;51.978;5.656;2023-08-08T10:29:39;23.3;41.8
78438;SHT31;67736;51.978;5.656;2023-08-08T10:32:10;23.3;42.8
78438;SHT31;67736;51.978;5.656;2023-08-08T10:34:41;23.3;43.0
78438;SHT31;67736;51.978;5.656;2023-08-08T10:37:12;23.3;42.8
78438;SHT31;67736;51.978;5.656;2023-08-08T10:39:51;23.3;41.1
78438;SHT31;67736;51.978;5.656;2023-08-08T10:42:23;23.3;41.5
78438;SHT31;67736;51.978;5.656;2023-08-08T10:44:55;23.2;42.0
78438;SHT31;67736;51.978;5.656;2023-08-08T10:47:26;23.2;42.1
78438;SHT31;67736;51.978;5.656;2023-08-08T10:50:04;23.1;42.7
78438;SHT31;67736;51.978;5.656;2023-08-08T10:52:38;23.1;42.7
78438;SHT31;67736;51.978;5.656;2023-08-08T10:55:19;23.0;43.4
78438;SHT31;67736;51.978;5.656;2023-08-08T10:58:04;22.9;43.0
78438;SHT31;67736;51.978;5.656;2023-08-08T11:00:36;22.8;43.6
78438;SHT31;67736;51.978;5.656;2023-08-08T11:03:07;22.8;43.8
78438;SHT31;67736;51.978;5.656;2023-08-08T11:05:38;22.8;44.0
78438;SHT31;67736;51.978;5.656;2023-08-08T11:08:13;22.8;44.0
78438;SHT31;67736;51.978;5.656;2023-08-08T11:10:44;22.8;42.6
78438;SHT31;67736;51.978;5.656;2023-08-08T11:13:14;22.8;43.3
78438;SHT31;67736;51.978;5.656;2023-08-08T11:15:45;22.8;42.1
78438;SHT31;67736;51.978;5.656;2023-08-08T11:18:16;22.8;41.7
78438;SHT31;67736;51.978;5.656;2023-08-08T11:20:45;22.8;41.9
78438;SHT31;67736;51.978;5.656;2023-08-08T11:23:15;22.8;42.3
78438;SHT31;67736;51.978;5.656;2023-08-08T11:25:47;22.7;43.0
78438;SHT31;67736;51.978;5.656;2023-08-08T11:28:18;22.7;44.0
78438;SHT31;67736;51.978;5.656;2023-08-08T11:30:48;22.6;43.9
78438;SHT31;67736;51.978;5.656;2023-08-08T11:33:17;22.6;43.4
78438;SHT31;67736;51.978;5.656;2023-08-08T11:35:47;22.6;43.9
78438;SHT31;67736;51.978;5.656;2023-08-08T11:38:17;22.6;44.7
78438;SHT31;67736;51.978;5.656;2023-08-08T11:40:47;22.6;45.1
78438;SHT31;67736;51.978;5.656;2023-08-08T11:43:19;22.6;44.8
78438;SHT31;67736;51.978;5.656;2023-08-08T11:45:50;22.6;44.6
78438;SHT31;67736;51.978;5.656;2023-08-08T11:48:22;22.6;43.7
78438;SHT31;67736;51.978;5.656;2023-08-08T11:50:52;22.6;43.7
78438;SHT31;67736;51.978;5.656;2023-08-08T11:53:23;22.7;43.6
78438;SHT31;67736;51.978;5.656;2023-08-08T11:55:53;22.7;43.7
78438;SHT31;67736;51.978;5.656;2023-08-08T11:58:23;22.7;44.0
78438;SHT31;67736;51.978;5.656;2023-08-08T12:00:53;22.7;43.9
78438;SHT31;67736;51.978;5.656;2023-08-08T12:03:25;22.7;43.4
78438;SHT31;67736;51.978;5.656;2023-08-08T12:05:54;22.7;44.0
78438;SHT31;67736;51.978;5.656;2023-08-08T12:08:24;22.7;44.7
78438;SHT31;67736;51.978;5.656;2023-08-08T12:10:54;22.7;44.5
78438;SHT31;67736;51.978;5.656;2023-08-08T12:13:24;22.7;43.4
78438;SHT31;67736;51.978;5.656;2023-08-08T12:15:55;22.7;43.0
78438;SHT31;67736;51.978;5.656;2023-08-08T12:18:28;22.7;43.4
78438;SHT31;67736;51.978;5.656;2023-08-08T12:20:58;22.7;43.5
78438;SHT31;67736;51.978;5.656;2023-08-08T12:23:28;22.7;43.5
78438;SHT31;67736;51.978;5.656;2023-08-08T12:25:59;22.6;43.8
78438;SHT31;67736;51.978;5.656;2023-08-08T12:28:31;22.6;44.3
78438;SHT31;67736;51.978;5.656;2023-08-08T12:31:02;22.6;43.7
78438;SHT31;67736;51.978;5.656;2023-08-08T12:33:31;22.5;43.8
78438;SHT31;67736;51.978;5.656;2023-08-08T12:36:01;22.5;44.3
78438;SHT31;67736;51.978;5.656;2023-08-08T12:38:30;22.4;44.7
78438;SHT31;67736;51.978;5.656;2023-08-08T12:41:02;22.4;44.4
78438;SHT31;67736;51.978;5.656;2023-08-08T12:43:35;22.4;44.5
78438;SHT31;67736;51.978;5.656;2023-08-08T12:46:04;22.4;44.9
78438;SHT31;67736;51.978;5.656;2023-08-08T12:48:34;22.4;44.9
78438;SHT31;67736;51.978;5.656;2023-08-08T12:51:04;22.5;45.9
78438;SHT31;67736;51.978;5.656;2023-08-08T12:53:35;22.5;44.9
78438;SHT31;67736;51.978;5.656;2023-08-08T12:56:04;22.5;45.7
78438;SHT31;67736;51.978;5.656;2023-08-08T12:58:34;22.5;44.6
78438;SHT31;67736;51.978;5.656;2023-08-08T13:01:03;22.5;44.5
78438;SHT31;67736;51.978;5.656;2023-08-08T13:03:33;22.5;45.2
78438;SHT31;67736;51.978;5.656;2023-08-08T13:06:03;22.5;45.5
78438;SHT31;67736;51.978;5.656;2023-08-08T13:08:33;22.4;45.5
78438;SHT31;67736;51.978;5.656;2023-08-08T13:11:03;22.4;45.6
78438;SHT31;67736;51.978;5.656;2023-08-08T13:13:35;22.4;44.6
78438;SHT31;67736;51.978;5.656;2023-08-08T13:16:04;22.4;44.6
78438;SHT31;67736;51.978;5.656;2023-08-08T13:18:34;22.3;44.5
78438;SHT31;67736;51.978;5.656;2023-08-08T13:21:03;22.3;44.5
78438;SHT31;67736;51.978;5.656;2023-08-08T13:23:34;22.3;45.1
78438;SHT31;67736;51.978;5.656;2023-08-08T13:26:04;22.3;45.1
78438;SHT31;67736;51.978;5.656;2023-08-08T13:28:33;22.2;45.0
78438;SHT31;67736;51.978;5.656;2023-08-08T13:31:03;22.2;45.0
78438;SHT31;67736;51.978;5.656;2023-08-08T13:33:33;22.2;45.3
78438;SHT31;67736;51.978;5.656;2023-08-08T13:36:04;22.2;46.4
78438;SHT31;67736;51.978;5.656;2023-08-08T13:38:33;22.2;46.1
78438;SHT31;67736;51.978;5.656;2023-08-08T13:41:03;22.2;46.5
78438;SHT31;67736;51.978;5.656;2023-08-08T13:43:32;22.2;46.2
78438;SHT31;67736;51.978;5.656;2023-08-08T13:46:02;22.2;46.6
78438;SHT31;67736;51.978;5.656;2023-08-08T13:48:37;22.1;46.4
78438;SHT31;67736;51.978;5.656;2023-08-08T13:51:06;22.1;46.2
78438;SHT31;67736;51.978;5.656;2023-08-08T13:53:37;22.1;46.2
78438;SHT31;67736;51.978;5.656;2023-08-08T13:56:09;22.1;45.9
78438;SHT31;67736;51.978;5.656;2023-08-08T13:58:39;22.0;46.1
78438;SHT31;67736;51.978;5.656;2023-08-08T14:01:09;22.0;46.5
78438;SHT31;67736;51.978;5.656;2023-08-08T14:03:39;22.0;47.3
78438;SHT31;67736;51.978;5.656;2023-08-08T14:06:08;22.0;46.5
78438;SHT31;67736;51.978;5.656;2023-08-08T14:08:38;21.9;46.4
78438;SHT31;67736;51.978;5.656;2023-08-08T14:11:07;21.9;46.5
78438;SHT31;67736;51.978;5.656;2023-08-08T14:13:37;21.9;46.8
78438;SHT31;67736;51.978;5.656;2023-08-08T14:16:08;21.8;46.8
78438;SHT31;67736;51.978;5.656;2023-08-08T14:18:37;21.8;46.4
78438;SHT31;67736;51.978;5.656;2023-08-08T14:21:07;21.8;46.6
78438;SHT31;67736;51.978;5.656;2023-08-08T14:23:38;21.8;46.0
78438;SHT31;67736;51.978;5.656;2023-08-08T14:26:08;21.7;46.9
78438;SHT31;67736;51.978;5.656;2023-08-08T14:28:37;21.7;47.0
78438;SHT31;67736;51.978;5.656;2023-08-08T14:31:07;21.7;47.2
78438;SHT31;67736;51.978;5.656;2023-08-08T14:33:37;21.7;48.5
78438;SHT31;67736;51.978;5.656;2023-08-08T14:36:06;21.8;47.5
78438;SHT31;67736;51.978;5.656;2023-08-08T14:38:36;21.8;47.6
78438;SHT31;67736;51.978;5.656;2023-08-08T14:41:06;21.8;47.6
78438;SHT31;67736;51.978;5.656;2023-08-08T14:43:36;21.9;47.0
78438;SHT31;67736;51.978;5.656;2023-08-08T14:46:06;21.9;46.3
78438;SHT31;67736;51.978;5.656;2023-08-08T14:48:35;21.9;45.5
78438;SHT31;67736;51.978;5.656;2023-08-08T14:51:05;21.9;45.7
78438;SHT31;67736;51.978;5.656;2023-08-08T14:53:35;21.9;45.6
78438;SHT31;67736;51.978;5.656;2023-08-08T14:56:04;21.9;46.1
78438;SHT31;67736;51.978;5.656;2023-08-08T14:58:34;21.9;46.0
78438;SHT31;67736;51.978;5.656;2023-08-08T15:01:05;21.9;46.5
78438;SHT31;67736;51.978;5.656;2023-08-08T15:03:35;21.9;46.3
78438;SHT31;67736;51.978;5.656;2023-08-08T15:06:06;21.9;45.5
78438;SHT31;67736;51.978;5.656;2023-08-08T15:08:36;21.9;46.5
78438;SHT31;67736;51.978;5.656;2023-08-08T15:11:05;21.9;46.6
78438;SHT31;67736;51.978;5.656;2023-08-08T15:13:35;21.9;47.2
78438;SHT31;67736;51.978;5.656;2023-08-08T15:16:05;21.9;46.7
78438;SHT31;67736;51.978;5.656;2023-08-08T15:18:35;21.9;45.7
78438;SHT31;67736;51.978;5.656;2023-08-08T15:21:05;21.9;45.8
78438;SHT31;67736;51.978;5.656;2023-08-08T15:23:34;21.9;45.4
78438;SHT31;67736;51.978;5.656;2023-08-08T15:26:07;21.9;45.9
78438;SHT31;67736;51.978;5.656;2023-08-08T15:28:37;21.9;46.8
78438;SHT31;67736;51.978;5.656;2023-08-08T15:31:07;21.9;46.9
78438;SHT31;67736;51.978;5.656;2023-08-08T15:33:38;21.9;47.1
78438;SHT31;67736;51.978;5.656;2023-08-08T15:36:07;22.0;48.0
78438;SHT31;67736;51.978;5.656;2023-08-08T15:38:37;22.0;47.7
78438;SHT31;67736;51.978;5.656;2023-08-08T15:41:09;22.0;47.4
78438;SHT31;67736;51.978;5.656;2023-08-08T15:43:39;22.0;45.7
78438;SHT31;67736;51.978;5.656;2023-08-08T15:46:10;22.0;45.7
78438;SHT31;67736;51.978;5.656;2023-08-08T15:48:40;22.0;46.2
78438;SHT31;67736;51.978;5.656;2023-08-08T15:51:10;22.0;45.8
78438;SHT31;67736;51.978;5.656;2023-08-08T15:53:40;22.0;46.2
78438;SHT31;67736;51.978;5.656;2023-08-08T15:56:09;22.0;46.7
78438;SHT31;67736;51.978;5.656;2023-08-08T15:58:39;22.0;47.0
78438;SHT31;67736;51.978;5.656;2023-08-08T16:01:10;21.9;47.7
78438;SHT31;67736;51.978;5.656;2023-08-08T16:03:39;21.9;48.2
78438;SHT31;67736;51.978;5.656;2023-08-08T16:06:09;22.0;48.0
78438;SHT31;67736;51.978;5.656;2023-08-08T16:08:38;22.0;48.0
78438;SHT31;67736;51.978;5.656;2023-08-08T16:11:08;22.0;48.4
78438;SHT31;67736;51.978;5.656;2023-08-08T16:13:37;22.0;48.3
78438;SHT31;67736;51.978;5.656;2023-08-08T16:16:07;22.0;47.2
78438;SHT31;67736;51.978;5.656;2023-08-08T16:18:36;22.0;46.2
78438;SHT31;67736;51.978;5.656;2023-08-08T16:21:06;22.0;45.9